Weather at Berlin-Schönefeld Airport [CLOSED]

Public forecast

Using degrees Celsius for public forecast. Weather courtesy of forecast.io.

Closest aviation weather report (METAR) to Berlin-Schönefeld Airport

Closest report is Berlin Brandenburg Airport, 1.3 nm (2.5 km) SW.

2024/02/24 14:50 (retrieved 25 minutes ago)

EDDB 241450Z AUTO 20011KT CAVOK 10/02 Q1004 NOSIG

Closest aviation forecast (TAF) to Berlin-Schönefeld Airport

Closest forecast is Berlin Brandenburg Airport, 1.3 nm (2.5 km) SW.

2024/02/24 12:27 (retrieved 3 hours ago)

TAF TAF EDDB 241100Z 2412/2512 21012KT CAVOK BECMG 2415/2417 20007KT BECMG 2421/2424 14005KT